Time;durP1;ratioP1;P1;durP2;ratioP2;P2;SDS_P1;SDS_P2;PMS_P1;PMS_P2;Temp;Humidity;BMP_temperature;BMP_pressure;BME280_temperature;BME280_humidity;BME280_pressure;Samples;Min_cycle;Max_cycle;Signal;HPM_P1;HPM_P2
2023/01/28 00:02:20;;;;;;;2.17;1.97;;;15.40;53.90;16.20;101900.00;;;;5032274;28;20174;-48
2023/01/28 00:04:45;;;;;;;2.00;1.83;;;15.40;53.90;16.20;101898.00;;;;5033321;28;20163;-48
2023/01/28 00:07:12;;;;;;;1.80;1.70;;;15.30;53.70;16.20;101899.00;;;;5032377;28;20171;-48
2023/01/28 00:09:38;;;;;;;1.90;1.80;;;15.40;53.80;16.20;101886.00;;;;5032281;28;20588;-47
2023/01/28 00:12:05;;;;;;;1.80;1.70;;;15.30;53.70;16.20;101895.00;;;;5031672;28;20178;-48
2023/01/28 00:14:30;;;;;;;1.80;1.70;;;15.30;53.70;16.10;101891.00;;;;5032376;28;20237;-47
2023/01/28 00:16:56;;;;;;;1.90;1.80;;;15.30;53.70;16.10;101898.00;;;;5032262;28;20175;-48
2023/01/28 00:19:22;;;;;;;1.90;1.80;;;15.20;53.60;16.10;101898.00;;;;5032597;28;20356;-48
2023/01/28 00:21:48;;;;;;;1.90;1.80;;;15.20;53.60;16.10;101892.00;;;;5032134;28;20607;-47
2023/01/28 00:24:14;;;;;;;2.10;1.90;;;15.20;53.70;16.10;101897.00;;;;5032912;28;20257;-48
2023/01/28 00:26:40;;;;;;;1.90;1.80;;;15.20;53.70;16.10;101887.00;;;;5032740;28;20175;-48
2023/01/28 00:29:05;;;;;;;1.90;1.80;;;15.20;53.70;16.10;101890.00;;;;5032495;28;20237;-48
2023/01/28 00:31:34;;;;;;;1.90;1.80;;;15.20;53.60;16.00;101883.00;;;;5031362;28;20199;-48
2023/01/28 00:33:59;;;;;;;2.20;1.90;;;15.10;53.60;16.00;101893.00;;;;5031561;28;20644;-48
2023/01/28 00:36:26;;;;;;;1.70;1.60;;;15.10;53.50;16.00;101880.00;;;;5031367;28;20213;-47
2023/01/28 00:38:58;;;;;;;1.90;1.80;;;15.10;53.50;16.00;101888.00;;;;5031356;28;20567;-48
2023/01/28 00:41:28;;;;;;;1.73;1.63;;;15.10;53.60;16.00;101883.00;;;;5030421;28;20230;-47
2023/01/28 00:43:54;;;;;;;1.80;1.70;;;15.10;53.60;16.00;101880.00;;;;5031046;28;20217;-47
2023/01/28 00:46:20;;;;;;;2.40;1.80;;;15.00;53.50;16.00;101879.00;;;;5031406;28;20171;-48
2023/01/28 00:48:46;;;;;;;1.70;1.60;;;15.10;53.50;16.00;101874.00;;;;5031288;28;20182;-47
2023/01/28 00:51:15;;;;;;;1.90;1.80;;;15.00;53.50;15.90;101870.00;;;;5031153;28;20194;-48
2023/01/28 00:53:41;;;;;;;1.80;1.70;;;15.00;53.50;15.90;101879.00;;;;5031385;28;20232;-47
2023/01/28 00:56:08;;;;;;;1.77;1.67;;;15.00;53.50;15.90;101884.00;;;;5031111;28;20186;-47
2023/01/28 00:58:34;;;;;;;1.77;1.67;;;15.00;53.50;15.90;101886.00;;;;5013534;28;20709;-47
2023/01/28 01:01:14;;;;;;;1.97;1.77;;;15.00;53.40;15.90;101877.00;;;;5031123;28;20198;-47
2023/01/28 01:03:40;;;;;;;1.80;1.70;;;14.90;53.30;15.90;101858.00;;;;5030289;28;20174;-48
2023/01/28 01:06:06;;;;;;;1.70;1.60;;;14.90;53.40;15.80;101862.00;;;;5031073;28;20167;-47
2023/01/28 01:08:38;;;;;;;1.83;1.73;;;14.90;53.30;15.80;101838.00;;;;5036591;28;20229;-48
2023/01/28 01:11:05;;;;;;;1.90;1.80;;;14.90;53.30;15.80;101856.00;;;;5039567;28;20679;-48
2023/01/28 01:13:33;;;;;;;1.90;1.80;;;14.90;53.40;15.80;101873.00;;;;5038273;28;20262;-47
2023/01/28 01:16:31;;;;;;;1.80;1.70;;;14.90;53.40;15.80;101878.00;;;;5032807;28;20183;-48
2023/01/28 01:18:56;;;;;;;1.93;1.80;;;14.90;53.30;15.70;101892.00;;;;5030187;28;20218;-48
2023/01/28 01:21:24;;;;;;;1.90;1.80;;;14.90;53.40;15.70;101902.00;;;;5030207;28;20267;-48
2023/01/28 01:23:50;;;;;;;1.90;1.80;;;14.80;53.30;15.70;101898.00;;;;5030906;28;20633;-48
2023/01/28 01:26:16;;;;;;;1.70;1.60;;;14.80;53.20;15.70;101891.00;;;;5030263;28;20643;-48
2023/01/28 01:28:42;;;;;;;1.90;1.80;;;14.80;53.20;15.70;101893.00;;;;5030506;28;20175;-48
2023/01/28 01:31:12;;;;;;;1.77;1.67;;;14.80;53.20;15.70;101900.00;;;;5032662;28;20205;-48
2023/01/28 01:33:38;;;;;;;1.80;1.70;;;14.70;53.20;15.60;101892.00;;;;5035979;28;20167;-48
2023/01/28 01:36:04;;;;;;;1.77;1.67;;;14.70;53.20;15.60;101888.00;;;;5031847;28;20171;-48
2023/01/28 01:38:30;;;;;;;2.10;1.90;;;14.70;53.20;15.60;101891.00;;;;5029713;28;20222;-48
2023/01/28 01:40:59;;;;;;;1.83;1.73;;;14.70;53.20;15.60;101885.00;;;;5030170;28;20199;-48
2023/01/28 01:43:25;;;;;;;1.73;1.63;;;14.70;53.20;15.60;101882.00;;;;5035835;28;20186;-48
2023/01/28 01:45:55;;;;;;;1.80;1.70;;;14.70;53.20;15.60;101878.00;;;;5037966;28;20665;-48
2023/01/28 01:48:33;;;;;;;1.90;1.80;;;14.60;53.00;15.50;101881.00;;;;5028985;28;20643;-48
2023/01/28 01:51:09;;;;;;;1.90;1.80;;;14.70;53.20;15.50;101879.00;;;;5030176;28;20198;-48
2023/01/28 01:53:39;;;;;;;1.90;1.80;;;14.70;53.20;15.50;101891.00;;;;5028635;28;20224;-48
2023/01/28 01:56:06;;;;;;;1.90;1.80;;;14.60;53.10;15.50;101876.00;;;;5028865;28;20628;-47
2023/01/28 01:58:34;;;;;;;1.80;1.70;;;14.60;53.10;15.50;101890.00;;;;5029020;28;20211;-48
2023/01/28 02:01:00;;;;;;;1.83;1.73;;;14.60;53.10;15.40;101873.00;;;;5030085;28;20186;-48
2023/01/28 02:03:32;;;;;;;1.90;1.80;;;14.60;53.10;15.40;101884.00;;;;5029460;28;20208;-47
2023/01/28 02:05:58;;;;;;;2.00;1.90;;;14.50;53.00;15.40;101888.00;;;;5028562;28;20179;-47
2023/01/28 02:08:24;;;;;;;1.80;1.70;;;14.50;53.00;15.40;101887.00;;;;5028322;28;20179;-47
2023/01/28 02:11:09;;;;;;;2.10;1.90;;;14.50;53.00;15.40;101876.00;;;;5029699;28;20215;-48
2023/01/28 02:13:44;;;;;;;2.20;2.00;;;14.50;53.00;15.40;101896.00;;;;5011481;28;20655;-47
2023/01/28 02:16:10;;;;;;;1.90;1.80;;;14.50;53.00;15.30;101894.00;;;;5012174;28;20675;-48
2023/01/28 02:18:36;;;;;;;2.00;1.80;;;14.50;53.00;15.30;101899.00;;;;5027942;28;20198;-48
2023/01/28 02:21:41;;;;;;;1.77;1.67;;;14.50;53.00;15.30;101897.00;;;;5028441;28;20242;-48
2023/01/28 02:24:51;;;;;;;2.00;1.90;;;14.50;53.00;15.30;101906.00;;;;5028225;28;20160;-48
2023/01/28 02:27:56;;;;;;;1.90;1.80;;;14.40;53.60;15.20;101912.00;;;;5029372;28;20565;-48
2023/01/28 02:30:26;;;;;;;1.90;1.80;;;14.40;53.00;15.20;101920.00;;;;5028204;28;20194;-47
2023/01/28 02:33:01;;;;;;;2.07;1.97;;;14.30;52.90;15.20;101916.00;;;;5027472;28;20217;-48
2023/01/28 02:35:45;;;;;;;1.90;1.80;;;14.30;52.90;15.20;101911.00;;;;5012057;28;20607;-48
2023/01/28 02:38:29;;;;;;;1.83;1.73;;;14.30;52.90;15.10;101921.00;;;;5012838;28;20282;-48
2023/01/28 02:41:05;;;;;;;1.87;1.77;;;14.30;52.90;15.10;101920.00;;;;5014088;28;20199;-47
2023/01/28 02:43:45;;;;;;;2.10;2.00;;;14.30;52.90;15.10;101919.00;;;;5012347;28;20208;-47
2023/01/28 02:49:03;;;;;;;2.73;1.93;;;14.20;52.80;15.10;101923.00;;;;5014461;28;20166;-47
2023/01/28 02:51:51;;;;;;;2.17;2.00;;;14.30;53.00;15.10;101917.00;;;;5027292;28;20189;-47
2023/01/28 02:54:54;;;;;;;2.00;1.90;;;14.30;52.90;15.00;101930.00;;;;5013145;28;20226;-48
2023/01/28 02:57:53;;;;;;;2.00;1.90;;;14.20;52.80;15.00;101921.00;;;;5027599;28;20239;-48
2023/01/28 03:00:53;;;;;;;1.90;1.80;;;14.20;52.80;15.00;101936.00;;;;5027473;28;20199;-54
2023/01/28 03:03:25;;;;;;;2.20;2.00;;;14.20;52.80;15.00;101922.00;;;;5027698;28;20696;-48
2023/01/28 03:06:07;;;;;;;1.90;1.80;;;14.20;52.80;14.90;101943.00;;;;5011814;28;20539;-51
2023/01/28 03:38:21;;;;;;;2.27;2.07;;;13.90;52.70;14.70;101922.00;;;;5013860;28;20292;-47
2023/01/28 03:40:59;;;;;;;2.00;1.90;;;13.90;52.70;14.70;101946.00;;;;5012491;28;20198;-48
2023/01/28 03:43:25;;;;;;;2.33;1.90;;;13.90;52.70;14.70;101944.00;;;;5028080;28;20167;-48
2023/01/28 03:45:51;;;;;;;2.07;1.90;;;13.90;52.80;14.70;101931.00;;;;5028022;28;20181;-48
2023/01/28 03:48:21;;;;;;;2.20;2.03;;;13.90;52.80;14.70;101930.00;;;;5028698;28;20199;-47
2023/01/28 03:50:47;;;;;;;1.90;1.80;;;13.90;52.80;14.70;101945.00;;;;5028123;28;20746;-48
2023/01/28 03:53:16;;;;;;;1.90;1.80;;;13.90;52.80;14.60;101939.00;;;;5027030;28;20266;-48
2023/01/28 03:55:42;;;;;;;2.00;1.90;;;13.90;52.80;14.60;101934.00;;;;5027900;28;20171;-48
2023/01/28 03:58:09;;;;;;;1.87;1.77;;;13.90;52.80;14.60;101941.00;;;;5028046;28;20325;-47
2023/01/28 04:00:36;;;;;;;2.13;1.93;;;13.80;52.70;14.60;101938.00;;;;5027862;28;20569;-48
2023/01/28 04:03:03;;;;;;;2.43;1.90;;;13.80;52.80;14.60;101940.00;;;;5028125;28;20163;-48
2023/01/28 04:05:29;;;;;;;3.27;2.00;;;13.80;52.70;14.60;101959.00;;;;5028063;28;20535;-48
2023/01/28 04:07:55;;;;;;;3.13;1.83;;;13.80;52.80;14.60;101954.00;;;;5028365;28;20259;-48
2023/01/28 04:10:21;;;;;;;4.30;1.93;;;13.80;52.80;14.60;101956.00;;;;5028382;28;20234;-47
2023/01/28 04:12:48;;;;;;;2.37;1.90;;;13.80;52.80;14.60;101960.00;;;;5027875;28;20671;-48
2023/01/28 04:15:15;;;;;;;4.17;1.90;;;13.80;52.70;14.50;101958.00;;;;5028141;28;20396;-47
2023/01/28 04:17:47;;;;;;;3.13;2.00;;;13.80;52.80;14.50;101958.00;;;;5028129;28;20214;-47
2023/01/28 04:20:13;;;;;;;3.10;2.00;;;13.70;52.70;14.50;101953.00;;;;5027312;28;20205;-48
2023/01/28 04:22:39;;;;;;;3.07;1.87;;;13.70;52.80;14.50;101954.00;;;;5027385;28;20171;-47
2023/01/28 04:25:05;;;;;;;2.13;1.97;;;13.70;52.70;14.50;101960.00;;;;5032321;28;20189;-47
2023/01/28 04:27:31;;;;;;;3.20;2.10;;;13.70;52.80;14.50;101963.00;;;;5035961;28;20178;-47
2023/01/28 04:29:56;;;;;;;4.00;1.90;;;13.70;52.80;14.50;101955.00;;;;5029306;28;20244;-47
2023/01/28 04:32:22;;;;;;;3.47;1.90;;;13.70;53.30;14.50;101976.00;;;;5026555;28;20172;-48
2023/01/28 04:34:48;;;;;;;2.40;2.00;;;13.70;53.10;14.50;101972.00;;;;5028184;28;20202;-48
2023/01/28 04:37:14;;;;;;;5.90;1.83;;;13.70;53.20;14.50;101974.00;;;;5027887;28;20163;-49
2023/01/28 04:39:39;;;;;;;3.20;2.00;;;13.70;53.20;14.50;101975.00;;;;5029648;28;20553;-48
2023/01/28 04:42:05;;;;;;;3.50;1.80;;;13.70;53.30;14.50;101970.00;;;;5030331;28;20171;-48
2023/01/28 04:44:31;;;;;;;2.93;1.80;;;13.70;53.30;14.40;101980.00;;;;5031415;28;20194;-48
2023/01/28 04:46:56;;;;;;;3.10;1.80;;;13.70;53.30;14.40;101982.00;;;;5031251;28;20531;-48
2023/01/28 04:49:22;;;;;;;4.17;1.80;;;13.70;53.30;14.40;101992.00;;;;5031144;28;20205;-48
2023/01/28 04:51:48;;;;;;;1.90;1.80;;;13.60;53.20;14.40;101985.00;;;;5030830;28;20194;-48
2023/01/28 04:54:13;;;;;;;3.60;1.70;;;13.60;53.20;14.40;101992.00;;;;5031659;28;20194;-48
2023/01/28 04:56:39;;;;;;;3.20;2.00;;;13.60;53.20;14.40;101991.00;;;;5031419;28;20198;-48
2023/01/28 04:59:05;;;;;;;2.27;2.00;;;13.60;53.10;14.40;101986.00;;;;5031760;28;20273;-48
2023/01/28 05:01:31;;;;;;;2.90;2.10;;;13.60;53.10;14.40;101983.00;;;;5030509;28;20639;-48
2023/01/28 05:03:56;;;;;;;2.77;1.80;;;13.60;53.10;14.40;101990.00;;;;5030990;28;20175;-48
2023/01/28 05:06:22;;;;;;;2.07;1.90;;;13.60;53.00;14.40;101979.00;;;;5030989;28;20193;-48
2023/01/28 05:08:48;;;;;;;2.30;2.10;;;13.60;53.00;14.30;101986.00;;;;5031069;28;20232;-48
2023/01/28 05:11:14;;;;;;;2.57;2.10;;;13.60;53.00;14.30;101984.00;;;;5028818;28;20317;-48
2023/01/28 05:13:39;;;;;;;2.20;2.00;;;13.50;52.80;14.30;101983.00;;;;5045522;28;20167;-48
2023/01/28 05:16:06;;;;;;;2.37;2.17;;;13.50;52.80;14.30;101977.00;;;;5021141;28;20299;-48
2023/01/28 05:18:31;;;;;;;2.30;2.10;;;13.50;52.80;14.30;101979.00;;;;5019287;28;20214;-48
2023/01/28 05:20:57;;;;;;;4.17;2.40;;;13.40;52.70;14.30;101986.00;;;;5011136;28;20282;-48
2023/01/28 05:23:23;;;;;;;3.27;2.37;;;13.50;52.70;14.30;101984.00;;;;5016394;28;20178;-48
2023/01/28 05:25:49;;;;;;;4.20;2.33;;;13.50;52.70;14.20;101984.00;;;;5017582;28;20259;-48
2023/01/28 05:28:15;;;;;;;3.53;2.20;;;13.50;52.70;14.20;101986.00;;;;5018057;28;20164;-48
2023/01/28 05:30:40;;;;;;;3.27;2.00;;;13.40;52.60;14.20;101990.00;;;;5008899;28;20200;-48
2023/01/28 05:33:06;;;;;;;3.00;2.20;;;13.40;52.80;14.20;101993.00;;;;5008392;28;20175;-49
2023/01/28 05:35:32;;;;;;;9.70;2.60;;;13.40;52.80;14.20;101988.00;;;;5007711;28;20555;-48
2023/01/28 05:37:58;;;;;;;5.63;2.20;;;13.40;52.80;14.20;101976.00;;;;5010800;28;20254;-49
2023/01/28 05:40:23;;;;;;;2.33;2.13;;;13.40;52.80;14.20;101987.00;;;;5011089;28;20684;-48
2023/01/28 05:42:49;;;;;;;2.97;2.03;;;13.40;52.90;14.20;101981.00;;;;5010243;28;20251;-49
2023/01/28 05:45:15;;;;;;;3.17;2.00;;;13.40;53.00;14.20;101981.00;;;;5010239;28;20175;-48
2023/01/28 05:47:41;;;;;;;4.00;2.17;;;13.40;53.10;14.20;101977.00;;;;5013754;28;20176;-49
2023/01/28 05:50:08;;;;;;;18.60;3.67;;;13.40;53.20;13.90;101995.00;;;;5022076;28;20195;-48
2023/01/28 05:52:33;;;;;;;15.87;3.60;;;13.40;53.30;14.20;101995.00;;;;5010557;28;20179;-48
2023/01/28 05:55:00;;;;;;;16.07;3.77;;;13.40;53.40;14.20;102003.00;;;;5010661;28;20691;-48
2023/01/28 05:57:25;;;;;;;19.20;4.37;;;13.40;53.40;14.10;101999.00;;;;5009995;28;20315;-48
2023/01/28 05:59:51;;;;;;;17.70;4.20;;;13.40;53.50;14.10;102001.00;;;;5008760;28;20657;-48
2023/01/28 06:02:17;;;;;;;10.07;3.80;;;13.40;53.40;14.10;102018.00;;;;5009900;28;20176;-48
2023/01/28 06:04:43;;;;;;;14.70;3.50;;;13.40;54.10;14.10;102012.00;;;;5010416;28;20736;-47
2023/01/28 06:07:08;;;;;;;14.17;4.00;;;13.30;53.50;14.10;102018.00;;;;5009756;28;20168;-48
2023/01/28 06:09:34;;;;;;;14.47;3.77;;;13.30;53.60;14.10;102013.00;;;;5010294;28;20192;-48
2023/01/28 06:12:00;;;;;;;11.23;3.30;;;13.30;53.60;14.10;102011.00;;;;5009621;28;20204;-49
2023/01/28 06:14:25;;;;;;;11.87;3.60;;;13.30;53.70;14.10;102013.00;;;;5010332;28;20394;-49
2023/01/28 06:16:51;;;;;;;13.73;3.60;;;13.30;53.70;14.10;102022.00;;;;5009721;28;20178;-49
2023/01/28 06:19:17;;;;;;;10.27;3.17;;;13.30;53.80;14.10;102011.00;;;;5010305;28;20218;-49
2023/01/28 06:21:43;;;;;;;8.43;2.93;;;13.30;53.80;14.10;102017.00;;;;5009648;28;20614;-49
2023/01/28 06:24:08;;;;;;;9.57;3.67;;;13.30;53.80;14.10;102031.00;;;;5010109;28;20601;-49
2023/01/28 06:26:34;;;;;;;7.90;3.37;;;13.30;53.80;14.10;102014.00;;;;5010151;28;20230;-48
2023/01/28 06:29:00;;;;;;;6.63;3.20;;;13.30;53.90;14.00;102020.00;;;;5010071;28;20183;-49
2023/01/28 06:31:26;;;;;;;12.37;3.70;;;13.30;54.00;14.00;102019.00;;;;5008083;28;20179;-48
2023/01/28 06:33:51;;;;;;;7.47;3.17;;;13.30;54.00;14.00;102030.00;;;;5009612;28;20595;-48
2023/01/28 06:36:17;;;;;;;7.90;3.00;;;13.30;54.00;14.00;102020.00;;;;5009562;28;20263;-48
2023/01/28 06:38:43;;;;;;;9.90;3.63;;;13.20;54.00;14.00;102022.00;;;;5009401;28;20731;-48
2023/01/28 06:41:08;;;;;;;5.73;3.20;;;13.20;54.00;14.00;102008.00;;;;5009263;28;20290;-50
2023/01/28 06:43:34;;;;;;;6.77;3.07;;;13.20;54.00;14.00;102020.00;;;;5009969;28;20175;-48
2023/01/28 06:46:00;;;;;;;6.03;2.83;;;13.20;54.10;14.00;102011.00;;;;5009316;28;20191;-48
2023/01/28 06:48:26;;;;;;;4.73;2.90;;;13.20;54.00;14.00;102017.00;;;;5009653;28;20452;-48
2023/01/28 06:50:52;;;;;;;6.77;2.60;;;13.20;54.10;14.00;102018.00;;;;5010194;28;20588;-48
2023/01/28 06:53:17;;;;;;;6.03;3.17;;;13.20;54.10;14.00;102029.00;;;;5008864;28;20306;-48
2023/01/28 06:55:43;;;;;;;4.90;2.87;;;13.20;54.10;14.00;102029.00;;;;5009149;28;20181;-48
2023/01/28 06:58:09;;;;;;;6.77;3.07;;;13.20;54.10;13.90;102030.00;;;;5008796;28;20242;-48
2023/01/28 07:00:35;;;;;;;5.67;2.90;;;13.20;54.10;13.90;102028.00;;;;5009322;28;20226;-48
2023/01/28 07:03:00;;;;;;;6.07;3.10;;;13.20;54.10;13.90;102032.00;;;;5008334;28;20407;-48
2023/01/28 07:05:26;;;;;;;6.10;2.97;;;13.10;54.10;13.90;102035.00;;;;5008922;28;20258;-48
2023/01/28 07:07:52;;;;;;;5.47;2.80;;;13.20;54.20;13.90;102032.00;;;;5012435;28;20238;-48
2023/01/28 07:10:18;;;;;;;5.87;3.07;;;13.10;54.10;13.90;102028.00;;;;5011404;28;20258;-48
2023/01/28 07:12:43;;;;;;;5.90;2.60;;;13.20;54.20;13.90;102035.00;;;;5008919;28;20562;-48
2023/01/28 07:15:10;;;;;;;3.67;2.50;;;13.10;54.10;13.90;102016.00;;;;5008908;28;20183;-48
2023/01/28 07:17:40;;;;;;;3.57;2.80;;;13.10;54.20;13.90;102038.00;;;;5008638;28;20176;-48
2023/01/28 07:20:07;;;;;;;4.33;2.90;;;13.10;54.20;13.90;102036.00;;;;5007710;28;20235;-47
2023/01/28 07:22:33;;;;;;;5.00;3.00;;;13.10;54.20;13.80;102037.00;;;;5008741;28;20178;-47
2023/01/28 07:25:00;;;;;;;3.80;2.67;;;13.10;54.20;13.90;102026.00;;;;5009035;28;20171;-48
2023/01/28 07:27:26;;;;;;;4.40;2.90;;;13.10;54.20;13.90;102023.00;;;;5009144;28;20311;-48
2023/01/28 07:29:51;;;;;;;4.50;2.60;;;13.10;54.20;13.90;102027.00;;;;5008190;28;20696;-47
2023/01/28 07:32:17;;;;;;;4.67;2.47;;;13.00;54.20;13.80;102020.00;;;;5008657;28;20175;-46
2023/01/28 07:34:43;;;;;;;3.97;2.80;;;13.00;54.20;13.80;102018.00;;;;5009032;28;20180;-47
2023/01/28 07:37:09;;;;;;;4.03;2.90;;;13.00;54.20;13.80;102015.00;;;;5008574;28;20222;-47
2023/01/28 07:39:34;;;;;;;3.50;2.80;;;13.00;54.30;13.80;102023.00;;;;5008319;28;20211;-47
2023/01/28 07:42:00;;;;;;;3.97;2.60;;;13.00;54.20;13.80;102039.00;;;;5009167;28;20194;-48
2023/01/28 07:44:26;;;;;;;4.27;2.80;;;13.00;54.20;13.80;102026.00;;;;5009049;28;20821;-47
2023/01/28 07:46:53;;;;;;;3.10;2.80;;;13.00;54.20;13.80;102025.00;;;;5008339;28;20207;-47
2023/01/28 07:49:18;;;;;;;4.57;2.63;;;13.00;54.30;13.80;102038.00;;;;5008657;28;20286;-47
2023/01/28 07:51:49;;;;;;;2.97;2.53;;;13.00;54.30;13.80;102039.00;;;;5008531;28;20254;-47
2023/01/28 07:54:15;;;;;;;3.23;2.70;;;12.90;54.20;13.80;102037.00;;;;5009334;28;20182;-47
2023/01/28 07:56:41;;;;;;;4.00;2.80;;;13.00;54.30;13.80;102022.00;;;;5009121;28;20262;-47
2023/01/28 07:59:06;;;;;;;3.87;2.70;;;13.00;54.30;13.80;102032.00;;;;5008523;28;20195;-47
2023/01/28 08:01:32;;;;;;;3.10;2.60;;;12.90;54.30;13.80;102036.00;;;;5008198;28;20175;-48
2023/01/28 08:03:58;;;;;;;3.90;2.80;;;13.00;54.50;13.70;102048.00;;;;5016955;28;20667;-47
2023/01/28 08:06:24;;;;;;;4.53;2.80;;;13.00;54.80;13.70;102055.00;;;;5027050;28;20225;-48
2023/01/28 08:08:49;;;;;;;2.73;2.53;;;12.90;54.70;13.70;102055.00;;;;5027312;28;20167;-48
2023/01/28 08:11:15;;;;;;;3.13;2.60;;;12.90;54.70;13.70;102054.00;;;;5026810;28;20191;-47
2023/01/28 08:13:41;;;;;;;4.70;2.53;;;12.90;55.10;13.70;102060.00;;;;5028296;28;20636;-47
2023/01/28 08:16:06;;;;;;;4.63;2.70;;;12.90;55.10;13.70;102054.00;;;;5032490;28;20410;-48
2023/01/28 08:18:32;;;;;;;3.33;2.50;;;12.90;55.20;13.80;102067.00;;;;5031610;28;20272;-48
2023/01/28 08:20:58;;;;;;;3.57;2.57;;;13.00;55.20;13.80;102075.00;;;;5031385;28;20217;-47
2023/01/28 08:23:27;;;;;;;3.30;2.70;;;13.00;55.20;13.80;102075.00;;;;5030516;28;20582;-48
2023/01/28 08:25:53;;;;;;;3.70;2.70;;;13.10;55.30;13.90;102076.00;;;;5029618;28;20174;-48
2023/01/28 08:28:19;;;;;;;2.67;2.40;;;13.20;55.40;13.90;102073.00;;;;5031038;28;20183;-47
2023/01/28 08:30:45;;;;;;;3.73;2.40;;;13.30;55.50;14.00;102082.00;;;;5032500;28;20892;-48
2023/01/28 08:33:12;;;;;;;3.67;2.20;;;13.30;55.50;14.10;102085.00;;;;5030925;28;20183;-48
2023/01/28 08:35:38;;;;;;;3.03;2.40;;;13.40;56.00;14.10;102079.00;;;;5032489;28;20182;-49
2023/01/28 08:38:04;;;;;;;3.20;2.27;;;13.50;56.10;14.20;102091.00;;;;5032426;28;20206;-47
2023/01/28 08:40:30;;;;;;;4.57;2.43;;;13.60;56.10;14.30;102100.00;;;;5032822;28;20222;-47
2023/01/28 08:42:55;;;;;;;5.47;2.30;;;13.70;56.10;14.40;102094.00;;;;5031764;28;20636;-47
2023/01/28 08:45:24;;;;;;;3.03;2.10;;;13.80;56.00;14.50;102096.00;;;;5031267;28;20167;-47
2023/01/28 08:47:58;;;;;;;4.10;2.27;;;13.90;56.60;14.60;102101.00;;;;5031486;28;20666;-47
2023/01/28 08:50:25;;;;;;;3.60;2.30;;;14.10;56.10;14.70;102097.00;;;;5030471;28;20203;-48
2023/01/28 08:53:18;;;;;;;2.93;2.20;;;14.10;55.90;14.90;102107.00;;;;5031684;28;20262;-47
2023/01/28 08:55:44;;;;;;;2.83;2.00;;;14.20;55.80;14.90;102101.00;;;;5030461;28;20177;-48
2023/01/28 08:58:12;;;;;;;3.30;2.10;;;14.40;56.00;15.10;102100.00;;;;5030310;28;20242;-52
2023/01/28 09:00:39;;;;;;;3.67;2.10;;;14.50;55.80;15.10;102104.00;;;;5031062;28;20203;-48
2023/01/28 09:03:04;;;;;;;2.70;2.13;;;14.50;55.70;15.20;102103.00;;;;5030362;28;20187;-48
2023/01/28 09:05:31;;;;;;;2.30;2.10;;;14.60;55.70;15.30;102062.00;;;;5031446;28;20182;-51
2023/01/28 09:08:04;;;;;;;2.20;2.00;;;14.70;55.70;15.40;102106.00;;;;5031421;28;20222;-47
2023/01/28 09:10:30;;;;;;;2.67;2.13;;;14.80;55.70;15.50;102118.00;;;;5031351;28;20199;-47
2023/01/28 09:12:56;;;;;;;3.87;2.20;;;14.90;55.70;15.60;102114.00;;;;5031486;28;20190;-47
2023/01/28 09:15:21;;;;;;;3.20;2.00;;;14.90;55.70;15.30;102127.00;;;;5031515;28;20177;-48
2023/01/28 09:17:47;;;;;;;3.17;2.00;;;15.00;55.80;15.70;102138.00;;;;5036956;28;20206;-47
2023/01/28 09:20:13;;;;;;;3.33;2.20;;;15.10;55.80;15.80;102137.00;;;;5038947;28;20218;-47
2023/01/28 09:22:39;;;;;;;4.60;1.90;;;15.20;56.00;15.90;102145.00;;;;5039804;28;20648;-47
2023/01/28 09:25:05;;;;;;;4.73;2.17;;;15.20;56.00;16.00;102144.00;;;;5029176;28;20229;-47
2023/01/28 09:27:31;;;;;;;6.20;2.20;;;15.30;56.10;16.10;102144.00;;;;5031456;28;20163;-46
2023/01/28 09:29:57;;;;;;;7.20;2.60;;;15.40;55.80;16.10;102155.00;;;;5031484;28;20682;-46
2023/01/28 09:32:23;;;;;;;3.13;2.30;;;15.40;55.50;16.20;102156.00;;;;5030837;28;20221;-50
2023/01/28 09:34:49;;;;;;;2.47;2.27;;;15.50;55.10;16.20;102150.00;;;;5030172;28;20175;-47
2023/01/28 09:37:17;;;;;;;4.77;2.30;;;15.60;55.00;16.30;102163.00;;;;5034038;28;20171;-47
2023/01/28 09:39:42;;;;;;;3.70;2.50;;;15.60;54.60;16.40;102150.00;;;;5039325;28;20213;-47
2023/01/28 09:42:38;;;;;;;2.73;2.53;;;15.70;54.40;16.40;102161.00;;;;5036389;28;20175;-47
2023/01/28 09:45:22;;;;;;;3.50;2.60;;;15.70;54.10;16.50;102163.00;;;;5028929;28;20182;-46
2023/01/28 09:47:50;;;;;;;2.50;2.30;;;15.80;53.70;16.50;102156.00;;;;5030999;28;20562;-47
2023/01/28 09:50:37;;;;;;;2.57;2.33;;;15.80;53.50;16.40;102144.00;;;;5031539;28;20187;-46
2023/01/28 09:53:15;;;;;;;2.80;2.60;;;15.90;53.30;16.70;102160.00;;;;5030463;28;20199;-46
2023/01/28 09:55:47;;;;;;;3.90;2.70;;;16.00;53.10;16.70;102145.00;;;;5029403;28;20155;-47
2023/01/28 09:58:16;;;;;;;4.53;2.70;;;16.00;52.90;16.80;102169.00;;;;5030140;28;20286;-46
2023/01/28 10:01:11;;;;;;;3.23;2.43;;;16.10;52.80;16.80;102158.00;;;;5029788;28;20187;-45
2023/01/28 10:04:01;;;;;;;3.40;3.10;;;16.10;52.50;16.90;102162.00;;;;5030669;28;20156;-46
2023/01/28 10:06:55;;;;;;;3.33;3.03;;;16.10;52.30;16.90;102166.00;;;;5030078;28;20210;-46
2023/01/28 10:09:43;;;;;;;3.70;3.37;;;16.10;52.20;16.90;102167.00;;;;5030420;28;20672;-47
2023/01/28 10:12:32;;;;;;;3.73;3.43;;;16.20;52.10;16.90;102148.00;;;;5031663;28;20747;-47
2023/01/28 10:15:19;;;;;;;4.40;3.57;;;16.20;51.90;16.90;102162.00;;;;5038718;28;20195;-47
2023/01/28 10:17:48;;;;;;;3.60;3.30;;;16.20;51.70;17.00;102173.00;;;;5028935;28;20228;-46
2023/01/28 10:20:33;;;;;;;3.47;3.17;;;16.20;51.60;17.00;102158.00;;;;5029007;28;20245;-47
2023/01/28 10:23:06;;;;;;;3.57;3.27;;;16.30;51.50;17.00;102167.00;;;;5027895;28;20206;-47
2023/01/28 10:25:31;;;;;;;4.13;3.40;;;16.30;51.50;17.00;102155.00;;;;5031365;28;20167;-47
2023/01/28 10:27:57;;;;;;;3.70;3.40;;;16.30;51.50;17.00;102152.00;;;;5024343;28;20198;-48
2023/01/28 10:30:30;;;;;;;4.33;2.93;;;16.30;51.50;17.00;102157.00;;;;5028193;28;20205;-47
2023/01/28 10:33:19;;;;;;;5.40;3.23;;;16.30;51.60;17.10;102164.00;;;;5028425;28;20249;-46
2023/01/28 10:35:46;;;;;;;3.40;2.83;;;16.40;51.90;17.10;102160.00;;;;5029423;28;20174;-46
2023/01/28 10:38:21;;;;;;;3.47;3.13;;;16.40;52.00;17.10;102154.00;;;;5028973;28;20245;-48
2023/01/28 10:40:47;;;;;;;3.60;2.80;;;16.40;52.10;17.20;102157.00;;;;5030018;28;20198;-47
2023/01/28 10:43:24;;;;;;;2.90;2.70;;;16.50;52.30;17.20;102169.00;;;;5028942;28;20178;-47
2023/01/28 10:46:26;;;;;;;3.03;2.60;;;16.50;52.40;17.20;102152.00;;;;5029251;28;20155;-47
2023/01/28 10:49:11;;;;;;;3.13;2.83;;;16.50;52.50;17.30;102150.00;;;;5028107;28;20277;-48
2023/01/28 10:51:39;;;;;;;3.00;2.50;;;16.50;52.60;17.30;102152.00;;;;5028157;28;20159;-47
2023/01/28 10:54:37;;;;;;;4.03;2.67;;;16.60;52.70;17.30;102148.00;;;;5006509;28;20218;-47
2023/01/28 10:57:06;;;;;;;3.50;2.50;;;16.60;52.80;17.40;102153.00;;;;5038060;28;20652;-48
2023/01/28 10:59:35;;;;;;;2.67;2.47;;;16.60;52.80;17.40;102161.00;;;;5025275;28;20285;-47
2023/01/28 11:02:05;;;;;;;2.70;2.50;;;16.70;52.90;17.40;102157.00;;;;5027539;28;20171;-47
2023/01/28 11:04:33;;;;;;;2.90;2.60;;;16.70;52.90;17.50;102154.00;;;;5027552;28;20167;-47
2023/01/28 11:06:59;;;;;;;2.60;2.40;;;16.70;52.90;17.50;102156.00;;;;5029801;28;20657;-47
2023/01/28 11:09:33;;;;;;;2.87;2.60;;;16.80;53.00;17.50;102174.00;;;;5029721;28;20229;-47
2023/01/28 11:12:16;;;;;;;2.60;2.40;;;16.80;53.00;17.60;102161.00;;;;5032478;28;20657;-47
2023/01/28 11:14:58;;;;;;;3.37;2.70;;;16.80;53.00;17.50;102162.00;;;;5028493;28;20643;-48
2023/01/28 11:17:28;;;;;;;4.13;2.57;;;16.80;53.00;17.60;102175.00;;;;5029354;28;20170;-48
2023/01/28 11:19:58;;;;;;;3.23;2.60;;;16.80;53.00;17.60;102179.00;;;;5036589;28;20278;-48
2023/01/28 11:22:38;;;;;;;2.60;2.40;;;16.80;53.00;17.60;102175.00;;;;5038388;28;20172;-47
2023/01/28 11:25:18;;;;;;;2.50;2.30;;;16.90;53.30;17.60;102158.00;;;;5032316;28;20166;-48
2023/01/28 11:27:48;;;;;;;2.43;2.23;;;16.90;53.20;17.60;102160.00;;;;5026987;28;20171;-48
2023/01/28 11:30:34;;;;;;;2.60;2.40;;;16.90;53.20;17.70;102150.00;;;;5028118;28;20812;-47
2023/01/28 11:33:21;;;;;;;3.20;2.37;;;16.90;53.30;17.70;102176.00;;;;5027081;28;20187;-47